Time;durP1;ratioP1;P1;durP2;ratioP2;P2;SDS_P1;SDS_P2;PMS_P1;PMS_P2;Temp;Humidity;BMP_temperature;BMP_pressure;BME280_temperature;BME280_humidity;BME280_pressure;Samples;Min_cycle;Max_cycle;Signal;HPM_P1;HPM_P2
2022/11/01 00:00:28;;;;;;;18.50;10.70;;;;;;;14.50;59.01;95358.88;4172524;28;20044;-62
2022/11/01 00:02:30;;;;;;;22.73;12.13;;;;;;;14.45;58.75;95359.34;4178628;28;20045;-61
2022/11/01 00:04:32;;;;;;;17.65;11.50;;;;;;;14.33;59.09;95353.59;4178232;28;20398;-63
2022/11/01 00:06:34;;;;;;;19.30;11.10;;;;;;;14.34;59.16;95354.41;4177463;28;20131;-63
2022/11/01 00:08:36;;;;;;;18.92;11.23;;;;;;;14.30;59.40;95355.72;4168407;28;20509;-61
2022/11/01 00:10:38;;;;;;;21.08;11.27;;;;;;;14.34;59.35;95352.59;4174926;28;20059;-63
2022/11/01 00:12:40;;;;;;;18.58;10.70;;;;;;;14.37;59.12;95363.78;4166092;28;20052;-61
2022/11/01 00:14:41;;;;;;;20.50;12.45;;;;;;;14.38;59.51;95358.38;4178291;28;20061;-63
2022/11/01 00:16:43;;;;;;;17.38;11.80;;;;;;;14.39;59.05;95349.47;4177446;28;20059;-61
2022/11/01 00:18:45;;;;;;;21.70;12.55;;;;;;;14.45;59.24;95354.06;4178494;28;20059;-61
2022/11/01 00:20:47;;;;;;;17.98;12.32;;;;;;;14.44;59.12;95354.25;4177289;28;20056;-62
2022/11/01 00:22:49;;;;;;;22.80;11.90;;;;;;;14.43;58.76;95352.59;4172407;28;20088;-62
2022/11/01 00:24:50;;;;;;;16.88;10.38;;;;;;;14.44;58.67;95354.25;4170105;28;20628;-64
2022/11/01 00:26:55;;;;;;;19.83;10.07;;;;;;;14.45;58.73;95359.34;4168378;28;20061;-63
2022/11/01 00:28:57;;;;;;;15.27;9.50;;;;;;;14.47;58.49;95356.53;4171967;28;20484;-63
2022/11/01 00:30:59;;;;;;;17.95;9.43;;;;;;;14.49;58.62;95355.38;4170815;28;20125;-63
2022/11/01 00:33:00;;;;;;;20.00;9.18;;;;;;;14.54;58.27;95352.25;4168246;28;20407;-61
2022/11/01 00:35:02;;;;;;;14.35;9.50;;;;;;;14.53;58.12;95351.41;4167825;28;20045;-63
2022/11/01 00:37:04;;;;;;;16.40;9.18;;;;;;;14.53;58.32;95351.41;4180630;28;20055;-62
2022/11/01 00:39:06;;;;;;;22.30;9.63;;;;;;;14.49;58.44;95355.38;4181490;28;20493;-64
2022/11/01 00:41:08;;;;;;;15.32;9.93;;;;;;;14.49;58.41;95349.28;4172468;28;20164;-63
2022/11/01 00:43:10;;;;;;;15.68;10.60;;;;;;;14.47;58.71;95353.91;4176179;28;20056;-63
2022/11/01 00:45:12;;;;;;;20.27;11.45;;;;;;;14.41;58.77;95352.78;4172832;28;20045;-62
2022/11/01 00:47:14;;;;;;;17.90;11.27;;;;;;;14.38;59.17;95347.00;4179276;28;20083;-64
2022/11/01 00:49:16;;;;;;;19.27;12.02;;;;;;;14.34;59.33;95344.69;4181136;28;20136;-65
2022/11/01 00:51:17;;;;;;;17.10;10.63;;;;;;;14.27;59.28;95346.34;4168823;28;20533;-64
2022/11/01 00:53:19;;;;;;;20.58;11.40;;;;;;;14.20;59.93;95353.28;4181337;28;20041;-64
2022/11/01 00:55:21;;;;;;;19.45;11.35;;;;;;;14.15;60.22;95352.94;4179961;28;20485;-61
2022/11/01 00:57:23;;;;;;;19.65;11.48;;;;;;;14.07;60.13;95350.31;4180323;28;20059;-61
2022/11/01 00:59:24;;;;;;;22.60;11.70;;;;;;;13.93;60.68;95351.78;4172549;28;20437;-61
2022/11/01 01:01:26;;;;;;;20.08;12.02;;;;;;;13.57;61.31;95353.88;4168430;28;20045;-63
2022/11/01 01:03:28;;;;;;;20.33;12.48;;;;;;;13.37;62.51;95354.16;4180650;28;20082;-61
2022/11/01 01:05:30;;;;;;;23.08;12.18;;;;;;;13.37;62.89;95353.34;4179968;28;20509;-63
2022/11/01 01:07:32;;;;;;;21.17;11.70;;;;;;;13.41;62.77;95360.75;4180723;28;20076;-62
2022/11/01 01:09:34;;;;;;;18.17;11.60;;;;;;;13.38;62.29;95361.06;4178907;28;20087;-62
2022/11/01 01:11:36;;;;;;;20.23;12.13;;;;;;;13.27;62.80;95356.91;4180807;28;20512;-63
2022/11/01 01:13:38;;;;;;;19.73;11.77;;;;;;;13.27;62.83;95359.53;4181009;28;20397;-62
2022/11/01 01:15:40;;;;;;;19.88;11.45;;;;;;;13.31;62.76;95360.03;4175662;28;20106;-63
2022/11/01 01:17:42;;;;;;;27.92;14.63;;;;;;;13.29;62.39;95356.75;4172504;28;20059;-62
2022/11/01 01:19:43;;;;;;;29.02;13.93;;;;;;;13.30;62.64;95353.16;4174604;28;20057;-62
2022/11/01 01:21:45;;;;;;;30.35;15.00;;;;;;;13.31;62.36;95354.78;4178229;28;20142;-64
2022/11/01 01:23:47;;;;;;;32.45;15.02;;;;;;;13.20;63.09;95360.31;4179628;28;20139;-63
2022/11/01 01:25:49;;;;;;;30.27;16.02;;;;;;;13.16;63.00;95354.53;4179761;28;20051;-64
2022/11/01 01:27:51;;;;;;;26.45;15.55;;;;;;;13.19;62.76;95356.88;4179839;28;20071;-63
2022/11/01 01:29:52;;;;;;;25.52;15.50;;;;;;;13.21;62.91;95352.25;4167160;28;20390;-63
2022/11/01 01:31:54;;;;;;;26.75;15.00;;;;;;;13.30;62.65;95356.59;4179466;28;20077;-64
2022/11/01 01:33:59;;;;;;;28.33;15.15;;;;;;;13.36;62.63;95357.78;4177894;28;20139;-64
2022/11/01 01:36:04;;;;;;;30.30;15.82;;;;;;;13.41;61.96;95349.41;4178209;28;20555;-63
2022/11/01 01:38:06;;;;;;;30.30;15.35;;;;;;;13.45;62.12;95359.44;4180508;28;20611;-63
2022/11/01 01:40:08;;;;;;;26.52;15.00;;;;;;;13.48;62.17;95356.47;4178482;28;20060;-63
2022/11/01 01:42:14;;;;;;;26.90;14.20;;;;;;;13.51;61.69;95361.44;4168118;28;20077;-64
2022/11/01 01:44:40;;;;;;;30.80;14.25;;;;;;;13.54;61.56;95360.28;4175306;28;20200;-63
2022/11/01 01:46:42;;;;;;;28.00;14.27;;;;;;;13.59;61.77;95362.44;4177525;28;20429;-64
2022/11/01 01:48:47;;;;;;;23.65;14.60;;;;;;;13.61;61.58;95365.72;4179641;28;20145;-66
2022/11/01 01:51:14;;;;;;;26.20;14.98;;;;;;;13.62;61.39;95362.94;4152644;28;20132;-65
2022/11/01 01:53:32;;;;;;;25.13;14.07;;;;;;;13.58;61.46;95366.88;4179007;28;20059;-63
2022/11/01 01:55:56;;;;;;;20.35;12.82;;;;;;;13.51;61.95;95366.69;4195272;28;20444;-63
2022/11/01 01:57:58;;;;;;;25.63;13.43;;;;;;;13.26;62.21;95372.84;4177992;28;20136;-63
2022/11/01 02:00:00;;;;;;;24.00;13.65;;;;;;;12.72;63.34;95365.19;4174221;28;20128;-62
2022/11/01 02:02:02;;;;;;;21.52;13.20;;;;;;;12.53;64.66;95368.84;4168209;28;20041;-63
2022/11/01 02:04:07;;;;;;;24.25;13.57;;;;;;;12.63;64.70;95371.38;4180299;28;20049;-63
2022/11/01 02:06:11;;;;;;;21.65;13.88;;;;;;;12.77;64.13;95368.16;4177598;28;20052;-64
2022/11/01 02:08:13;;;;;;;23.52;13.88;;;;;;;12.90;63.74;95360.66;4178819;28;20052;-63
2022/11/01 02:10:15;;;;;;;25.88;14.15;;;;;;;13.00;63.21;95360.56;4165671;28;20513;-64
2022/11/01 02:12:17;;;;;;;23.10;14.13;;;;;;;13.06;62.75;95367.81;4178579;28;20080;-63
2022/11/01 02:14:20;;;;;;;25.65;14.30;;;;;;;13.13;63.23;95364.56;4169518;28;20073;-64
2022/11/01 02:16:49;;;;;;;25.00;13.20;;;;;;;13.15;62.44;95365.25;4162207;28;20084;-63
2022/11/01 02:19:08;;;;;;;21.70;14.38;;;;;;;13.18;62.94;95364.91;4170087;28;20127;-64
2022/11/01 02:21:29;;;;;;;27.42;15.88;;;;;;;13.13;62.43;95361.94;4176086;28;20080;-63
2022/11/01 02:24:06;;;;;;;24.80;18.05;;;;;;;12.93;62.82;95372.69;4179883;28;20161;-63
2022/11/01 02:26:19;;;;;;;29.50;18.00;;;;;;;12.83;63.00;95378.06;4193276;28;20039;-65
2022/11/01 02:28:42;;;;;;;27.75;17.73;;;;;;;12.69;63.36;95379.47;4178940;28;20045;-63
2022/11/01 02:31:02;;;;;;;28.02;18.40;;;;;;;12.56;64.04;95379.06;4183783;28;20053;-64
2022/11/01 02:33:04;;;;;;;25.67;17.48;;;;;;;12.52;64.08;95376.88;4149369;28;20048;-65
2022/11/01 02:35:24;;;;;;;26.67;17.65;;;;;;;12.48;64.11;95382.47;4173071;28;20135;-63
2022/11/01 02:37:34;;;;;;;26.17;16.88;;;;;;;12.49;64.47;95380.66;4167708;28;20148;-64
2022/11/01 02:39:39;;;;;;;28.25;16.95;;;;;;;12.50;64.06;95380.50;4177797;28;20048;-62
2022/11/01 02:41:48;;;;;;;29.05;16.98;;;;;;;12.37;64.49;95384.50;4163820;28;20077;-62
2022/11/01 02:44:06;;;;;;;16.60;11.50;;;;;;;12.23;64.88;95388.50;4175931;28;20057;-62
2022/11/01 02:48:29;;;;;;;18.73;11.48;;;;;;;12.13;65.46;95396.50;4161703;28;20054;-64
2022/11/01 02:50:42;;;;;;;16.23;10.00;;;;;;;12.06;65.24;95392.78;4169840;28;20100;-64
2022/11/01 02:52:45;;;;;;;17.00;10.75;;;;;;;12.14;65.35;95400.75;4176560;28;20061;-63
2022/11/01 02:54:53;;;;;;;16.13;11.10;;;;;;;12.26;65.02;95399.53;4177185;28;20132;-64
2022/11/01 02:56:57;;;;;;;17.58;11.65;;;;;;;12.37;64.58;95392.38;4177699;28;20061;-63
2022/11/01 02:59:00;;;;;;;17.85;10.77;;;;;;;12.47;64.47;95388.66;4177842;28;20695;-63
2022/11/01 03:01:01;;;;;;;18.38;11.20;;;;;;;12.58;63.83;95398.13;4174442;28;20077;-62
2022/11/01 03:03:14;;;;;;;23.23;12.63;;;;;;;12.66;63.94;95398.16;4164420;28;20068;-63
2022/11/01 03:05:24;;;;;;;19.35;13.07;;;;;;;12.77;63.46;95398.91;4171473;28;20051;-64
2022/11/01 03:07:25;;;;;;;20.33;12.52;;;;;;;12.87;63.14;95397.00;4177556;28;20091;-63
2022/11/01 03:09:27;;;;;;;24.73;13.85;;;;;;;12.93;62.98;95395.53;4169506;28;20127;-63
2022/11/01 03:11:55;;;;;;;21.13;13.55;;;;;;;12.98;62.44;95399.34;4169842;28;20053;-63
2022/11/01 03:14:22;;;;;;;21.23;13.05;;;;;;;12.99;62.77;95406.28;4166747;28;20042;-63
2022/11/01 03:16:31;;;;;;;17.35;13.55;;;;;;;13.03;62.76;95407.56;4167540;28;20128;-62
2022/11/01 03:18:35;;;;;;;19.95;13.32;;;;;;;13.05;62.32;95410.06;4178829;28;20045;-63
2022/11/01 03:20:47;;;;;;;22.52;12.82;;;;;;;13.10;62.25;95407.81;4162646;28;20144;-64
2022/11/01 03:22:55;;;;;;;22.25;10.73;;;;;;;13.09;62.00;95401.69;4167139;28;20053;-64
2022/11/01 03:25:02;;;;;;;16.10;10.95;;;;;;;13.11;62.17;95405.00;4178112;28;20140;-65
2022/11/01 03:27:09;;;;;;;17.55;11.90;;;;;;;13.09;61.99;95406.94;4193145;28;20135;-62
2022/11/01 03:29:11;;;;;;;22.15;12.90;;;;;;;13.04;62.54;95411.88;4178621;28;20132;-62
2022/11/01 03:31:15;;;;;;;24.63;13.00;;;;;;;13.01;62.49;95406.91;4164481;28;20099;-63
2022/11/01 03:33:17;;;;;;;24.30;15.13;;;;;;;12.95;62.38;95404.09;4173311;28;20069;-65
2022/11/01 03:35:25;;;;;;;20.02;14.35;;;;;;;12.93;62.98;95408.66;4167926;28;20763;-63
2022/11/01 03:37:28;;;;;;;19.92;14.40;;;;;;;12.91;62.75;95401.78;4178677;28;20132;-60
2022/11/01 03:39:42;;;;;;;27.00;15.15;;;;;;;12.90;62.76;95394.84;4177240;28;20084;-63
2022/11/01 03:41:48;;;;;;;23.35;13.25;;;;;;;12.90;62.77;95399.28;4164000;28;20562;-64
2022/11/01 03:43:50;;;;;;;21.52;13.60;;;;;;;12.95;63.01;95402.31;4177347;28;20049;-63
2022/11/01 03:45:53;;;;;;;42.08;27.40;;;;;;;12.97;63.22;95408.22;4169408;28;20128;-66
2022/11/01 03:47:54;;;;;;;28.58;18.10;;;;;;;12.94;62.74;95402.44;4177278;28;20052;-63
2022/11/01 03:50:12;;;;;;;27.58;16.25;;;;;;;12.91;62.69;95403.59;4176969;28;20557;-64
2022/11/01 03:52:13;;;;;;;21.88;12.55;;;;;;;12.85;62.78;95410.28;4178023;28;20076;-63
2022/11/01 03:54:15;;;;;;;18.40;10.60;;;;;;;12.48;63.22;95410.53;4176905;28;20159;-62
2022/11/01 03:56:17;;;;;;;20.15;10.95;;;;;;;12.06;64.46;95404.13;4178129;28;20148;-61
2022/11/01 03:58:18;;;;;;;20.40;10.88;;;;;;;11.82;65.49;95407.31;4178195;28;20055;-61
2022/11/01 04:00:30;;;;;;;18.17;10.95;;;;;;;11.74;66.18;95412.47;4176710;28;20095;-61
2022/11/01 04:02:31;;;;;;;17.30;10.93;;;;;;;11.52;66.30;95413.72;4162633;28;20076;-64
2022/11/01 04:04:33;;;;;;;21.17;12.30;;;;;;;11.52;67.02;95408.47;4163308;28;20482;-63
2022/11/01 04:06:35;;;;;;;20.05;11.65;;;;;;;11.61;66.64;95414.66;4161089;28;20125;-63
2022/11/01 04:08:37;;;;;;;15.13;9.75;;;;;;;11.65;66.18;95414.19;4175962;28;20155;-61
2022/11/01 04:10:38;;;;;;;21.67;10.65;;;;;;;11.56;66.49;95415.09;4178768;28;20531;-63
2022/11/01 04:12:44;;;;;;;18.60;9.90;;;;;;;11.64;66.60;95411.75;4173942;28;20419;-63
2022/11/01 04:21:47;;;;;;;15.60;10.15;;;;;;;11.07;68.10;95407.47;4164132;28;20136;-63
2022/11/01 04:23:49;;;;;;;17.60;10.43;;;;;;;11.14;67.99;95399.03;4172081;28;20135;-62
2022/11/01 04:25:51;;;;;;;17.60;10.48;;;;;;;11.27;67.33;95407.38;4180066;28;20080;-63
2022/11/01 04:27:55;;;;;;;17.85;10.93;;;;;;;11.38;67.21;95407.19;4180461;28;20081;-62
2022/11/01 04:29:57;;;;;;;17.80;11.18;;;;;;;11.46;66.89;95404.66;4179544;28;20071;-62
2022/11/01 04:31:58;;;;;;;19.20;10.93;;;;;;;11.55;66.75;95412.59;4180487;28;20102;-63
2022/11/01 04:34:01;;;;;;;22.13;11.80;;;;;;;11.67;66.17;95398.31;4171160;28;20081;-62
2022/11/01 04:36:04;;;;;;;18.48;10.98;;;;;;;11.82;65.84;95404.69;4177807;28;20041;-63
2022/11/01 04:38:06;;;;;;;16.20;11.18;;;;;;;11.94;65.58;95399.25;4171884;28;20546;-62
2022/11/01 04:40:08;;;;;;;16.40;10.50;;;;;;;12.05;64.89;95401.66;4165715;28;20414;-62
2022/11/01 04:42:10;;;;;;;17.70;11.15;;;;;;;12.15;64.60;95405.00;4165380;28;20133;-62
2022/11/01 04:44:11;;;;;;;17.50;11.02;;;;;;;12.24;64.33;95406.75;4168426;28;20081;-64
2022/11/01 04:46:13;;;;;;;20.10;11.30;;;;;;;12.29;64.25;95408.91;4174078;28;20489;-64
2022/11/01 04:48:15;;;;;;;24.40;11.25;;;;;;;12.32;63.66;95407.78;4179825;28;20057;-63
2022/11/01 04:50:19;;;;;;;24.65;12.32;;;;;;;12.33;64.02;95404.19;4168219;28;20057;-63
2022/11/01 04:52:20;;;;;;;19.52;10.77;;;;;;;12.32;64.14;95408.59;4180002;28;20068;-61
2022/11/01 04:54:22;;;;;;;19.35;11.50;;;;;;;12.36;63.64;95406.50;4170756;28;20632;-62
2022/11/01 04:56:24;;;;;;;20.40;12.23;;;;;;;12.35;63.94;95412.75;4176554;28;20041;-61
2022/11/01 04:58:25;;;;;;;16.63;11.50;;;;;;;12.40;63.63;95415.72;4181244;28;20084;-63
2022/11/01 05:00:27;;;;;;;24.88;11.60;;;;;;;12.39;63.48;95414.91;4179286;28;20878;-62
2022/11/01 05:02:30;;;;;;;20.52;11.73;;;;;;;12.34;63.72;95419.78;4168333;28;20053;-63
2022/11/01 05:04:31;;;;;;;16.65;12.07;;;;;;;12.33;63.76;95418.16;4174098;28;20405;-64
2022/11/01 05:06:33;;;;;;;20.67;11.48;;;;;;;12.32;63.98;95415.66;4163748;28;20482;-66
2022/11/01 05:08:36;;;;;;;21.20;11.57;;;;;;;12.32;63.86;95420.91;4178476;28;20084;-64
2022/11/01 05:10:39;;;;;;;22.73;11.93;;;;;;;12.34;63.81;95418.97;4180917;28;20091;-64
2022/11/01 05:12:41;;;;;;;;;;;;;;;12.40;63.56;95418.38;4171562;28;20076;-64
2022/11/01 05:14:43;;;;;;;27.23;11.48;;;;;;;12.44;63.45;95431.03;4176399;28;19931;-64
2022/11/01 05:16:44;;;;;;;25.73;12.02;;;;;;;12.42;63.26;95427.75;4180056;28;20120;-63
2022/11/01 05:18:46;;;;;;;18.67;10.95;;;;;;;12.42;63.66;95432.19;4181089;28;20131;-63
2022/11/01 05:20:48;;;;;;;17.48;10.52;;;;;;;12.44;63.12;95432.84;4179546;28;20099;-64
2022/11/01 05:22:50;;;;;;;18.75;11.25;;;;;;;12.43;63.17;95433.81;4179189;28;20061;-64
2022/11/01 05:24:52;;;;;;;20.10;11.55;;;;;;;12.47;63.19;95443.03;4180586;28;20136;-67
2022/11/01 05:26:54;;;;;;;20.15;11.32;;;;;;;12.49;63.18;95441.09;4180156;28;20171;-66
2022/11/01 05:28:55;;;;;;;16.65;10.38;;;;;;;12.53;63.15;95439.81;4180991;28;20049;-64
2022/11/01 05:30:57;;;;;;;18.92;13.13;;;;;;;12.56;62.99;95443.94;4180014;28;20486;-64
2022/11/01 05:33:00;;;;;;;25.73;16.23;;;;;;;12.56;63.42;95444.78;4167365;28;20213;-62
2022/11/01 05:35:01;;;;;;;24.35;19.30;;;;;;;12.61;62.97;95441.69;4173668;28;20133;-65
2022/11/01 05:37:03;;;;;;;21.35;13.45;;;;;;;12.63;62.45;95440.56;4172792;28;20049;-63
2022/11/01 05:39:05;;;;;;;18.88;11.32;;;;;;;12.69;62.41;95442.56;4180674;28;20072;-66
2022/11/01 05:41:07;;;;;;;20.27;11.07;;;;;;;12.76;62.21;95441.97;4171884;28;20148;-63
2022/11/01 05:43:08;;;;;;;23.02;11.40;;;;;;;12.82;62.64;95443.94;4164431;28;20053;-64
2022/11/01 05:45:10;;;;;;;19.27;11.65;;;;;;;12.89;61.78;95445.00;4170499;28;20063;-65
2022/11/01 05:47:12;;;;;;;23.08;12.00;;;;;;;12.88;62.17;95448.59;4180414;28;20128;-64
2022/11/01 05:49:18;;;;;;;27.35;12.50;;;;;;;12.88;62.07;95457.31;4180784;28;20052;-64
2022/11/01 05:51:19;;;;;;;21.67;12.05;;;;;;;12.89;62.31;95448.44;4179144;28;20438;-66
2022/11/01 05:53:21;;;;;;;26.33;12.07;;;;;;;12.98;61.78;95451.13;4180439;28;20053;-64
2022/11/01 05:55:22;;;;;;;19.83;12.38;;;;;;;13.02;61.73;95453.28;4180342;28;20049;-63
2022/11/01 05:57:25;;;;;;;30.25;12.35;;;;;;;13.02;62.04;95455.91;4180550;28;20600;-63
2022/11/01 05:59:33;;;;;;;23.88;13.10;;;;;;;13.10;61.44;95463.84;4179333;28;20049;-63
2022/11/01 06:01:35;;;;;;;22.98;13.85;;;;;;;13.12;61.43;95461.09;4179520;28;20127;-63
2022/11/01 06:03:36;;;;;;;22.42;14.98;;;;;;;13.20;61.67;95461.09;4179344;28;20697;-65
2022/11/01 06:05:38;;;;;;;29.17;15.63;;;;;;;13.28;61.55;95468.22;4162458;28;20053;-65
2022/11/01 06:07:40;;;;;;;29.23;15.63;;;;;;;13.33;61.05;95463.34;4168988;28;20132;-66
2022/11/01 06:09:41;;;;;;;36.85;16.63;;;;;;;13.38;60.97;95466.34;4180374;28;20133;-64
2022/11/01 06:11:43;;;;;;;28.10;15.75;;;;;;;13.46;60.77;95457.63;4179553;28;20160;-64
2022/11/01 06:13:45;;;;;;;27.45;14.95;;;;;;;13.56;60.67;95463.59;4179911;28;20534;-67
2022/11/01 06:15:46;;;;;;;26.92;15.75;;;;;;;13.65;60.84;95462.66;4179017;28;20053;-64
2022/11/01 06:17:55;;;;;;;22.75;14.57;;;;;;;13.70;60.39;95463.03;4176267;28;20087;-65
2022/11/01 06:19:57;;;;;;;32.63;16.27;;;;;;;13.72;60.61;95468.09;4179972;28;20683;-65
2022/11/01 06:21:58;;;;;;;24.33;14.50;;;;;;;13.79;60.26;95474.41;4173707;28;20087;-65
2022/11/01 06:24:00;;;;;;;22.58;14.25;;;;;;;13.85;59.94;95468.50;4172381;28;20132;-64
2022/11/01 06:26:03;;;;;;;36.10;14.30;;;;;;;13.89;59.68;95474.25;4178698;28;20056;-65
2022/11/01 06:28:04;;;;;;;28.63;15.27;;;;;;;13.90;59.57;95475.91;4178282;28;20045;-68
2022/11/01 06:30:07;;;;;;;26.95;15.32;;;;;;;13.91;59.39;95474.91;4179616;28;20127;-64
2022/11/01 06:32:08;;;;;;;33.17;15.98;;;;;;;13.88;59.24;95468.16;4170989;28;20533;-65
2022/11/01 06:34:10;;;;;;;30.52;15.32;;;;;;;13.90;59.27;95470.66;4174706;28;20138;-65
2022/11/01 06:36:12;;;;;;;25.88;15.43;;;;;;;13.92;59.55;95471.31;4165239;28;20057;-65
2022/11/01 06:38:13;;;;;;;30.88;15.07;;;;;;;13.96;59.28;95469.16;4179654;28;20041;-64
2022/11/01 06:40:15;;;;;;;25.45;15.45;;;;;;;14.02;58.98;95477.25;4170675;28;20092;-67
2022/11/01 06:42:17;;;;;;;29.63;14.48;;;;;;;14.10;59.18;95471.19;4168812;28;20048;-66
2022/11/01 06:44:18;;;;;;;25.08;15.00;;;;;;;14.17;58.89;95466.91;4174329;28;20092;-63
2022/11/01 06:46:20;;;;;;;28.58;14.45;;;;;;;14.24;58.56;95473.19;4173728;28;20080;-66
2022/11/01 06:48:22;;;;;;;28.98;14.40;;;;;;;14.29;58.42;95478.78;4162930;28;20053;-66
2022/11/01 06:50:24;;;;;;;28.52;14.82;;;;;;;14.31;58.46;95478.63;4166921;28;20052;-66
2022/11/01 06:52:25;;;;;;;27.63;15.45;;;;;;;14.36;58.24;95475.50;4178583;28;20048;-64
2022/11/01 06:54:27;;;;;;;29.52;13.40;;;;;;;14.33;58.27;95477.47;4178428;28;20136;-64
2022/11/01 06:56:29;;;;;;;27.38;15.23;;;;;;;14.30;57.83;95483.09;4175825;28;20224;-66
2022/11/01 06:58:30;;;;;;;29.30;15.25;;;;;;;14.24;58.16;95483.72;4168075;28;20214;-65
2022/11/01 07:00:32;;;;;;;26.80;14.82;;;;;;;14.29;58.08;95477.97;4174828;28;20574;-65
2022/11/01 07:02:34;;;;;;;28.70;15.10;;;;;;;14.28;57.95;95477.16;4175986;28;20053;-65
2022/11/01 07:04:37;;;;;;;28.13;15.88;;;;;;;14.27;58.24;95477.31;4178417;28;20406;-66
2022/11/01 07:06:39;;;;;;;28.92;15.68;;;;;;;14.36;58.19;95470.22;4166464;28;20437;-66
2022/11/01 07:08:40;;;;;;;27.92;16.25;;;;;;;14.41;58.13;95474.03;4178000;28;20087;-66
2022/11/01 07:10:42;;;;;;;32.42;16.23;;;;;;;14.43;58.26;95476.47;4179259;28;20080;-64
2022/11/01 07:12:44;;;;;;;28.83;15.05;;;;;;;14.51;58.09;95472.03;4179466;28;20052;-64
2022/11/01 07:14:46;;;;;;;29.02;16.70;;;;;;;14.62;57.74;95473.56;4179208;28;20140;-65
2022/11/01 07:16:47;;;;;;;25.52;15.25;;;;;;;14.70;57.56;95473.56;4172649;28;20111;-67
2022/11/01 07:18:50;;;;;;;28.38;16.08;;;;;;;14.80;57.05;95480.47;4168645;28;20590;-65
2022/11/01 07:20:52;;;;;;;29.75;15.98;;;;;;;14.85;57.06;95478.19;4167629;28;20523;-65
2022/11/01 07:23:05;;;;;;;31.90;15.65;;;;;;;14.91;56.41;95473.06;4178770;28;20135;-66
2022/11/01 07:25:09;;;;;;;37.25;16.20;;;;;;;15.00;56.42;95479.16;4167297;28;20041;-66
2022/11/01 07:27:10;;;;;;;38.45;16.92;;;;;;;15.11;55.95;95475.34;4177803;28;20053;-67
2022/11/01 07:29:19;;;;;;;35.65;16.85;;;;;;;15.25;55.53;95479.94;4178325;28;20504;-65
2022/11/01 07:31:21;;;;;;;38.13;17.35;;;;;;;15.20;55.27;95476.13;4177901;28;20132;-66
2022/11/01 07:33:22;;;;;;;34.08;16.58;;;;;;;15.07;55.86;95472.19;4179084;28;20049;-66
2022/11/01 07:35:25;;;;;;;28.30;16.73;;;;;;;15.07;56.04;95477.47;4177049;28;20124;-64
2022/11/01 07:37:29;;;;;;;31.25;16.98;;;;;;;15.11;56.02;95470.88;4178283;28;20059;-64
2022/11/01 07:39:31;;;;;;;34.70;15.85;;;;;;;15.24;55.64;95475.63;4178489;28;20080;-65
2022/11/01 07:41:33;;;;;;;28.92;16.67;;;;;;;15.31;55.24;95478.41;4177287;28;20137;-64
2022/11/01 07:43:35;;;;;;;35.83;17.27;;;;;;;15.37;55.32;95475.09;4172156;28;20122;-64
2022/11/01 07:45:37;;;;;;;25.67;17.93;;;;;;;15.41;55.14;95475.59;4175795;28;20132;-65
2022/11/01 07:47:39;;;;;;;34.63;18.40;;;;;;;15.44;54.85;95476.06;4178032;28;20041;-64
2022/11/01 07:49:40;;;;;;;35.05;17.55;;;;;;;15.54;54.53;95475.88;4178080;28;20091;-66
2022/11/01 07:51:42;;;;;;;31.95;18.30;;;;;;;15.69;54.35;95471.53;4177776;28;20135;-65
2022/11/01 07:53:43;;;;;;;31.80;18.90;;;;;;;15.74;54.15;95476.31;4177101;28;20051;-64
2022/11/01 07:55:45;;;;;;;31.98;18.75;;;;;;;15.83;54.10;95472.66;4178583;28;20059;-63
2022/11/01 07:57:47;;;;;;;30.13;17.83;;;;;;;15.91;53.44;95467.31;4178241;28;20092;-63
2022/11/01 07:59:48;;;;;;;37.97;18.65;;;;;;;15.73;53.82;95470.22;4177924;28;20128;-64
2022/11/01 08:01:50;;;;;;;39.47;18.73;;;;;;;15.72;54.22;95470.38;4177898;28;20383;-61
2022/11/01 08:03:52;;;;;;;30.45;18.88;;;;;;;15.87;53.94;95471.28;4175331;28;20103;-58
2022/11/01 08:05:54;;;;;;;34.35;18.52;;;;;;;16.03;53.57;95474.88;4175405;28;20516;-60
2022/11/01 08:07:56;;;;;;;26.70;17.70;;;;;;;16.16;53.08;95475.94;4168389;28;20494;-62
2022/11/01 08:09:58;;;;;;;36.60;19.17;;;;;;;16.26;52.88;95467.78;4174298;28;20093;-61
2022/11/01 08:12:00;;;;;;;32.67;19.35;;;;;;;16.39;52.45;95469.84;4175824;28;20392;-60
2022/11/01 08:14:02;;;;;;;30.48;17.38;;;;;;;16.52;52.26;95461.31;4170753;28;20159;-59
2022/11/01 08:16:06;;;;;;;29.92;18.05;;;;;;;16.59;51.97;95462.25;4174074;28;20045;-61
2022/11/01 08:18:08;;;;;;;24.05;17.27;;;;;;;16.65;52.09;95461.56;4175278;28;20068;-61
2022/11/01 08:20:10;;;;;;;31.92;17.95;;;;;;;16.72;51.53;95464.31;4168399;28;20049;-61
2022/11/01 08:22:12;;;;;;;28.02;18.50;;;;;;;16.77;51.58;95457.47;4178060;28;20052;-60
2022/11/01 08:24:13;;;;;;;28.33;16.92;;;;;;;16.93;51.31;95455.72;4174753;28;20049;-60
2022/11/01 08:26:15;;;;;;;32.20;19.27;;;;;;;17.01;50.64;95455.63;4175794;28;20076;-58
2022/11/01 08:28:19;;;;;;;30.00;18.20;;;;;;;16.96;50.56;95455.34;4178514;28;20083;-61
2022/11/01 08:30:21;;;;;;;34.63;18.52;;;;;;;17.01;51.13;95446.88;4177815;28;20132;-60
2022/11/01 08:32:23;;;;;;;33.35;19.65;;;;;;;17.08;50.80;95453.06;4178501;28;20080;-60
2022/11/01 08:34:25;;;;;;;32.05;18.35;;;;;;;17.05;51.14;95443.69;4178408;28;20049;-60
2022/11/01 08:36:26;;;;;;;29.40;17.98;;;;;;;16.95;50.67;95448.41;4177273;28;20120;-61
2022/11/01 08:38:28;;;;;;;29.60;17.77;;;;;;;16.94;50.78;95441.47;4178258;28;20120;-61
2022/11/01 08:40:31;;;;;;;26.17;17.65;;;;;;;17.06;50.63;95441.88;4177846;28;20580;-60
2022/11/01 08:42:33;;;;;;;30.25;18.95;;;;;;;17.05;50.45;95437.56;4178463;28;20045;-60
2022/11/01 08:44:34;;;;;;;27.27;18.85;;;;;;;17.17;50.49;95441.44;4171956;28;20414;-60
2022/11/01 08:46:36;;;;;;;34.65;18.67;;;;;;;17.16;49.92;95432.66;4174698;28;20097;-62
2022/11/01 08:48:37;;;;;;;33.20;18.60;;;;;;;17.08;50.28;95435.41;4177938;28;20390;-59
2022/11/01 08:50:39;;;;;;;30.98;17.13;;;;;;;17.14;50.14;95447.91;4177214;28;20489;-60
2022/11/01 08:52:41;;;;;;;28.67;17.85;;;;;;;17.02;50.52;95444.06;4178425;28;20128;-60
2022/11/01 08:54:43;;;;;;;33.75;18.38;;;;;;;17.12;50.45;95443.78;4177980;28;20132;-59
2022/11/01 08:56:45;;;;;;;25.08;16.42;;;;;;;17.04;50.57;95441.22;4178823;28;20478;-66
2022/11/01 08:58:50;;;;;;;31.27;16.83;;;;;;;17.07;50.43;95438.22;4181564;28;20092;-65
2022/11/01 09:00:52;;;;;;;31.85;17.35;;;;;;;17.20;50.50;95441.03;4180414;28;20061;-66
2022/11/01 09:02:54;;;;;;;33.60;20.13;;;;;;;17.50;49.81;95436.56;4181069;28;20056;-67
2022/11/01 09:04:55;;;;;;;36.30;16.08;;;;;;;17.64;49.25;95428.78;4181315;28;20084;-65
2022/11/01 09:06:57;;;;;;;30.10;16.75;;;;;;;17.80;48.77;95425.94;4178172;28;20132;-64
2022/11/01 09:08:59;;;;;;;26.27;16.27;;;;;;;17.87;48.68;95421.56;4168538;28;20053;-67
2022/11/01 09:11:01;;;;;;;30.10;15.57;;;;;;;17.84;48.54;95427.25;4164184;28;20057;-66
2022/11/01 09:13:03;;;;;;;26.90;15.30;;;;;;;17.71;48.72;95419.09;4178064;28;20482;-69
2022/11/01 09:15:05;;;;;;;20.77;15.18;;;;;;;17.69;48.67;95421.94;4180292;28;20398;-67
2022/11/01 09:17:07;;;;;;;28.52;15.57;;;;;;;17.93;48.57;95425.31;4176333;28;20045;-66
2022/11/01 09:19:09;;;;;;;29.15;15.90;;;;;;;18.15;47.73;95419.00;4180933;28;20133;-61
2022/11/01 09:21:11;;;;;;;27.17;14.82;;;;;;;18.46;47.66;95422.38;4167921;28;20085;-61
2022/11/01 09:23:12;;;;;;;27.08;15.60;;;;;;;18.70;47.02;95421.97;4179812;28;20474;-61
2022/11/01 09:25:14;;;;;;;24.63;14.95;;;;;;;18.59;46.82;95419.84;4179657;28;20053;-60
2022/11/01 09:27:15;;;;;;;29.77;15.45;;;;;;;18.39;47.09;95420.47;4179348;28;20160;-59
2022/11/01 09:29:17;;;;;;;31.77;17.10;;;;;;;18.41;47.07;95417.63;4180076;28;20053;-61
2022/11/01 09:31:19;;;;;;;21.17;14.98;;;;;;;18.42;47.36;95417.44;4177483;28;20083;-58
2022/11/01 09:33:23;;;;;;;24.35;14.68;;;;;;;18.59;46.95;95412.69;4180873;28;20071;-63
2022/11/01 09:35:24;;;;;;;25.17;14.93;;;;;;;18.90;46.63;95403.56;4179731;28;20087;-59
2022/11/01 09:37:26;;;;;;;40.38;15.73;;;;;;;19.12;45.98;95414.97;4180450;28;20045;-58